Time;durP1;ratioP1;P1;durP2;ratioP2;P2;SDS_P1;SDS_P2;PMS_P1;PMS_P2;Temp;Humidity;BMP_temperature;BMP_pressure;BME280_temperature;BME280_humidity;BME280_pressure;Samples;Min_cycle;Max_cycle;Signal;HPM_P1;HPM_P2
2023/05/09 00:00:31;;;;;;;11.80;8.68;;;;;;;;;;5014420;28;20030;-57
2023/05/09 00:02:57;;;;;;;11.15;8.38;;;;;;;;;;5015126;28;20476;-57
2023/05/09 00:05:22;;;;;;;11.40;7.72;;;;;;;;;;5014923;28;20029;-57
2023/05/09 00:07:47;;;;;;;11.82;7.90;;;;;;;;;;5014816;28;20033;-57
2023/05/09 00:10:13;;;;;;;11.52;9.00;;;;;;;;;;5014815;28;20080;-57
2023/05/09 00:12:39;;;;;;;10.45;8.35;;;;;;;;;;5014810;28;20064;-57
2023/05/09 00:15:07;;;;;;;12.00;8.90;;;;;;;;;;5014643;28;20030;-57
2023/05/09 00:17:32;;;;;;;9.40;8.20;;;;;;;;;;5014622;28;20034;-58
2023/05/09 00:20:00;;;;;;;11.70;8.60;;;;;;;;;;5014720;28;20064;-58
2023/05/09 00:22:26;;;;;;;11.20;7.60;;;;;;;;;;5014462;28;20125;-58
2023/05/09 00:24:51;;;;;;;11.15;7.65;;;;;;;;;;5014696;28;20413;-58
2023/05/09 00:27:17;;;;;;;10.93;7.40;;;;;;;;;;4996872;28;20469;-58
2023/05/09 00:29:43;;;;;;;9.23;7.10;;;;;;;;;;4997029;28;20076;-58
2023/05/09 00:32:08;;;;;;;11.75;7.90;;;;;;;;;;5014284;28;20030;-57
2023/05/09 00:34:34;;;;;;;9.75;7.43;;;;;;;;;;5014246;28;20041;-57
2023/05/09 00:37:00;;;;;;;10.43;7.43;;;;;;;;;;5014567;28;20123;-58
2023/05/09 00:39:25;;;;;;;9.90;8.15;;;;;;;;;;4996414;28;20034;-58
2023/05/09 00:41:51;;;;;;;9.13;7.95;;;;;;;;;;4980411;28;20372;-57
2023/05/09 00:44:16;;;;;;;11.35;7.60;;;;;;;;;;5013959;28;20041;-57
2023/05/09 00:46:42;;;;;;;9.93;6.65;;;;;;;;;;5013739;28;20037;-58
2023/05/09 00:49:07;;;;;;;8.00;6.93;;;;;;;;;;5014249;28;20476;-57
2023/05/09 00:51:34;;;;;;;9.05;6.88;;;;;;;;;;4996245;28;20038;-57
2023/05/09 00:54:00;;;;;;;9.80;7.03;;;;;;;;;;4996594;28;20041;-56
2023/05/09 00:56:25;;;;;;;7.50;6.70;;;;;;;;;;5014413;28;20030;-56
2023/05/09 00:58:51;;;;;;;7.68;6.68;;;;;;;;;;5014228;28;20034;-57
2023/05/09 01:01:16;;;;;;;8.30;5.93;;;;;;;;;;4996706;28;20018;-56
2023/05/09 01:03:42;;;;;;;9.40;5.93;;;;;;;;;;5014189;28;20468;-57
2023/05/09 01:06:30;;;;;;;7.13;6.18;;;;;;;;;;5014269;28;20026;-57
2023/05/09 01:09:06;;;;;;;9.00;6.43;;;;;;;;;;4996555;28;20084;-57
2023/05/09 01:11:38;;;;;;;8.35;6.45;;;;;;;;;;5000055;28;20072;-57
2023/05/09 01:14:05;;;;;;;6.72;5.70;;;;;;;;;;5017796;28;20037;-57
2023/05/09 01:16:50;;;;;;;8.45;6.45;;;;;;;;;;4984074;28;20121;-57
2023/05/09 01:19:42;;;;;;;8.82;6.70;;;;;;;;;;5017991;28;20546;-57
2023/05/09 01:22:08;;;;;;;8.13;6.40;;;;;;;;;;4987844;28;20034;-57
2023/05/09 01:24:43;;;;;;;7.65;5.97;;;;;;;;;;5017893;28;20097;-58
2023/05/09 01:27:21;;;;;;;8.82;5.53;;;;;;;;;;5000165;28;20089;-57
2023/05/09 01:29:47;;;;;;;6.05;5.45;;;;;;;;;;5017714;28;20037;-57
2023/05/09 01:32:16;;;;;;;8.02;5.70;;;;;;;;;;5000096;28;20030;-58
2023/05/09 01:34:43;;;;;;;6.00;5.30;;;;;;;;;;5000150;28;20084;-57
2023/05/09 01:37:09;;;;;;;5.90;5.38;;;;;;;;;;5017657;28;20292;-57
2023/05/09 01:39:37;;;;;;;7.07;5.50;;;;;;;;;;4999756;28;20125;-57
2023/05/09 01:42:06;;;;;;;6.90;4.95;;;;;;;;;;5000051;28;20034;-57
2023/05/09 01:44:33;;;;;;;6.70;5.45;;;;;;;;;;5017236;28;20018;-57
2023/05/09 01:46:59;;;;;;;6.15;5.13;;;;;;;;;;5017610;28;20164;-57
2023/05/09 01:49:27;;;;;;;7.95;5.32;;;;;;;;;;5000033;28;20365;-57
2023/05/09 01:51:52;;;;;;;6.03;5.43;;;;;;;;;;4999433;28;20022;-57
2023/05/09 01:54:19;;;;;;;5.88;5.30;;;;;;;;;;5017203;28;20032;-57
2023/05/09 01:56:45;;;;;;;7.25;5.35;;;;;;;;;;5017242;28;20037;-57
2023/05/09 01:59:14;;;;;;;5.93;5.22;;;;;;;;;;4999649;28;20022;-57
2023/05/09 02:01:41;;;;;;;7.20;5.53;;;;;;;;;;4999693;28;20023;-57
2023/05/09 02:04:06;;;;;;;6.60;5.60;;;;;;;;;;5017162;28;20038;-57
2023/05/09 02:06:31;;;;;;;7.63;5.35;;;;;;;;;;5017289;28;20088;-57
2023/05/09 02:08:57;;;;;;;8.02;5.43;;;;;;;;;;5017019;28;20028;-57
2023/05/09 02:11:24;;;;;;;8.27;5.88;;;;;;;;;;4998622;28;20117;-58
2023/05/09 02:13:50;;;;;;;6.22;5.47;;;;;;;;;;5016711;28;20061;-57
2023/05/09 02:16:15;;;;;;;6.70;5.70;;;;;;;;;;5016417;28;20080;-57
2023/05/09 02:18:41;;;;;;;7.80;5.97;;;;;;;;;;4999427;28;20096;-57
2023/05/09 02:21:06;;;;;;;6.95;5.35;;;;;;;;;;5014990;28;20413;-58
2023/05/09 02:23:31;;;;;;;7.40;5.47;;;;;;;;;;5016334;28;20018;-57
2023/05/09 02:25:57;;;;;;;6.75;5.57;;;;;;;;;;4998724;28;20080;-57
2023/05/09 02:28:24;;;;;;;7.97;5.68;;;;;;;;;;5016207;28;20084;-58
2023/05/09 02:30:50;;;;;;;5.78;5.25;;;;;;;;;;5016654;28;20037;-56
2023/05/09 02:33:16;;;;;;;6.00;5.38;;;;;;;;;;5016593;28;20480;-56
2023/05/09 02:35:42;;;;;;;7.35;5.47;;;;;;;;;;5016379;28;20080;-56
2023/05/09 02:38:08;;;;;;;6.40;5.80;;;;;;;;;;4998879;28;20038;-57
2023/05/09 02:40:33;;;;;;;8.73;5.47;;;;;;;;;;4998599;28;20040;-56
2023/05/09 02:42:58;;;;;;;6.05;5.38;;;;;;;;;;5016685;28;20026;-56
2023/05/09 02:45:24;;;;;;;6.75;5.75;;;;;;;;;;4998758;28;20061;-56
2023/05/09 02:47:49;;;;;;;6.78;5.60;;;;;;;;;;4999025;28;20120;-56
2023/05/09 02:50:14;;;;;;;6.00;5.40;;;;;;;;;;4998671;28;20018;-57
2023/05/09 02:52:40;;;;;;;7.93;5.97;;;;;;;;;;4998101;28;20034;-57
2023/05/09 02:55:06;;;;;;;7.07;5.70;;;;;;;;;;5016164;28;20026;-57
2023/05/09 02:57:35;;;;;;;6.15;5.55;;;;;;;;;;4997918;28;20026;-57
2023/05/09 03:00:00;;;;;;;5.55;5.05;;;;;;;;;;4998654;28;20034;-57
2023/05/09 03:02:26;;;;;;;6.18;5.57;;;;;;;;;;4998503;28;20431;-56
2023/05/09 03:04:51;;;;;;;6.82;6.03;;;;;;;;;;5016097;28;20030;-56
2023/05/09 03:07:16;;;;;;;7.10;5.97;;;;;;;;;;4998467;28;20354;-56
2023/05/09 03:09:42;;;;;;;8.98;5.82;;;;;;;;;;4998365;28;20542;-56
2023/05/09 03:12:07;;;;;;;6.50;5.65;;;;;;;;;;5016179;28;20093;-56
2023/05/09 03:14:34;;;;;;;6.65;5.95;;;;;;;;;;4998111;28;20084;-57
2023/05/09 03:17:01;;;;;;;6.53;5.93;;;;;;;;;;4998171;28;20030;-56
2023/05/09 03:19:32;;;;;;;7.32;5.93;;;;;;;;;;4997909;28;20026;-56
2023/05/09 03:21:57;;;;;;;8.57;6.15;;;;;;;;;;4998130;28;20076;-57
2023/05/09 03:24:25;;;;;;;6.03;5.47;;;;;;;;;;4997984;28;20156;-57
2023/05/09 03:26:50;;;;;;;7.95;5.60;;;;;;;;;;4998011;28;20456;-63
2023/05/09 03:29:16;;;;;;;7.70;5.68;;;;;;;;;;4997746;28;20026;-63
2023/05/09 03:31:41;;;;;;;7.75;5.47;;;;;;;;;;4997278;28;20030;-63
2023/05/09 03:34:11;;;;;;;7.07;5.60;;;;;;;;;;4997064;28;20021;-63
2023/05/09 03:36:37;;;;;;;7.70;5.45;;;;;;;;;;5015043;28;20480;-63
2023/05/09 03:39:12;;;;;;;7.28;5.80;;;;;;;;;;4997427;28;20045;-63
2023/05/09 03:41:42;;;;;;;6.78;5.70;;;;;;;;;;4997999;28;20457;-63
2023/05/09 03:44:08;;;;;;;6.93;5.63;;;;;;;;;;4997234;28;20022;-63
2023/05/09 03:46:33;;;;;;;9.35;5.75;;;;;;;;;;4997332;28;20060;-63
2023/05/09 03:48:58;;;;;;;5.93;5.13;;;;;;;;;;5014665;28;20472;-63
2023/05/09 03:51:24;;;;;;;6.03;5.43;;;;;;;;;;4997280;28;20034;-63
2023/05/09 03:53:50;;;;;;;7.30;5.80;;;;;;;;;;4997138;28;20025;-63
2023/05/09 03:56:16;;;;;;;8.20;5.70;;;;;;;;;;4997226;28;20125;-63
2023/05/09 03:58:47;;;;;;;6.47;5.38;;;;;;;;;;4996859;28;20551;-63
2023/05/09 04:01:14;;;;;;;8.75;5.80;;;;;;;;;;4996969;28;20115;-63
2023/05/09 04:03:40;;;;;;;6.75;5.80;;;;;;;;;;4997142;28;20014;-63
2023/05/09 04:06:07;;;;;;;6.60;5.50;;;;;;;;;;4997123;28;20396;-63
2023/05/09 04:08:36;;;;;;;10.45;6.40;;;;;;;;;;4995077;28;20022;-63
2023/05/09 04:11:02;;;;;;;10.75;6.70;;;;;;;;;;4997192;28;20472;-63
2023/05/09 04:13:29;;;;;;;12.50;6.80;;;;;;;;;;4996809;28;20045;-63
2023/05/09 04:15:55;;;;;;;11.60;6.50;;;;;;;;;;4996492;28;20021;-63
2023/05/09 04:18:21;;;;;;;8.52;6.43;;;;;;;;;;4997031;28;20036;-63
2023/05/09 04:20:46;;;;;;;10.38;6.75;;;;;;;;;;4996775;28;20495;-63
2023/05/09 04:23:12;;;;;;;10.68;6.70;;;;;;;;;;4996883;28;20026;-63
2023/05/09 04:25:38;;;;;;;9.60;6.25;;;;;;;;;;4997061;28;20400;-63
2023/05/09 04:28:03;;;;;;;8.60;5.93;;;;;;;;;;4980831;28;20022;-63
2023/05/09 04:30:29;;;;;;;8.88;5.95;;;;;;;;;;4996898;28;20033;-63
2023/05/09 04:32:55;;;;;;;9.50;6.45;;;;;;;;;;4996253;28;20026;-63
2023/05/09 04:35:21;;;;;;;11.32;8.55;;;;;;;;;;4996161;28;20401;-63
2023/05/09 04:37:48;;;;;;;11.57;6.72;;;;;;;;;;4996561;28;20026;-62
2023/05/09 04:40:13;;;;;;;10.15;6.70;;;;;;;;;;4995759;28;20540;-64
2023/05/09 04:42:45;;;;;;;10.27;6.35;;;;;;;;;;4996559;28;20037;-64
2023/05/09 04:45:11;;;;;;;6.68;5.95;;;;;;;;;;4996478;28;20034;-63
2023/05/09 04:47:37;;;;;;;12.82;7.75;;;;;;;;;;4996385;28;20029;-63
2023/05/09 04:50:03;;;;;;;9.48;6.85;;;;;;;;;;5013982;28;20487;-64
2023/05/09 04:52:28;;;;;;;10.15;8.02;;;;;;;;;;5013787;28;20030;-63
2023/05/09 04:54:54;;;;;;;11.20;7.60;;;;;;;;;;4996515;28;20050;-63
2023/05/09 04:57:21;;;;;;;7.45;5.82;;;;;;;;;;4996412;28;20037;-64
2023/05/09 04:59:52;;;;;;;6.93;5.78;;;;;;;;;;4996655;28;20030;-63
2023/05/09 05:02:17;;;;;;;6.45;5.30;;;;;;;;;;5014077;28;20077;-63
2023/05/09 05:04:44;;;;;;;8.40;5.30;;;;;;;;;;4996525;28;20121;-65
2023/05/09 05:07:10;;;;;;;6.30;5.47;;;;;;;;;;4996478;28;20117;-65
2023/05/09 05:09:35;;;;;;;6.28;5.38;;;;;;;;;;4996642;28;20026;-65
2023/05/09 05:12:01;;;;;;;8.75;5.82;;;;;;;;;;4996829;28;20030;-65
2023/05/09 05:14:26;;;;;;;7.72;5.20;;;;;;;;;;4996574;28;20079;-65
2023/05/09 05:16:51;;;;;;;8.35;5.97;;;;;;;;;;5013787;28;20360;-65
2023/05/09 05:19:17;;;;;;;9.38;5.93;;;;;;;;;;4996277;28;20392;-65
2023/05/09 05:21:42;;;;;;;6.97;5.32;;;;;;;;;;4995901;28;20488;-65
2023/05/09 05:24:08;;;;;;;5.75;4.80;;;;;;;;;;4996281;28;20072;-64
2023/05/09 05:26:33;;;;;;;6.05;5.22;;;;;;;;;;5013688;28;20122;-64
2023/05/09 05:28:59;;;;;;;4.60;3.65;;;;;;;;;;4995829;28;20022;-64
2023/05/09 05:31:25;;;;;;;4.85;4.35;;;;;;;;;;4996061;28;20018;-64
2023/05/09 05:33:50;;;;;;;6.72;4.53;;;;;;;;;;4995678;28;20030;-65
2023/05/09 05:36:16;;;;;;;4.80;4.40;;;;;;;;;;4980272;28;20080;-64
2023/05/09 05:38:41;;;;;;;6.95;5.22;;;;;;;;;;5013454;28;20037;-64
2023/05/09 05:41:10;;;;;;;4.30;3.90;;;;;;;;;;4995860;28;20029;-65
2023/05/09 05:43:36;;;;;;;7.45;4.63;;;;;;;;;;4996170;28;20029;-65
2023/05/09 05:46:01;;;;;;;5.30;4.20;;;;;;;;;;5015682;28;20092;-56
2023/05/09 05:48:28;;;;;;;4.25;3.85;;;;;;;;;;4996040;28;20072;-57
2023/05/09 05:50:54;;;;;;;6.78;4.45;;;;;;;;;;5012424;28;20054;-56
2023/05/09 05:53:23;;;;;;;6.22;4.38;;;;;;;;;;4996235;28;20126;-56
2023/05/09 05:55:49;;;;;;;4.57;3.83;;;;;;;;;;5013725;28;20459;-56
2023/05/09 05:58:14;;;;;;;3.85;3.55;;;;;;;;;;5015634;28;20121;-56
2023/05/09 06:00:42;;;;;;;4.15;3.83;;;;;;;;;;4999298;28;20380;-56
2023/05/09 06:03:12;;;;;;;8.00;5.60;;;;;;;;;;4999227;28;20026;-56
2023/05/09 06:05:59;;;;;;;7.32;4.85;;;;;;;;;;4999434;28;20030;-56
2023/05/09 06:08:25;;;;;;;16.38;7.78;;;;;;;;;;5015452;28;20087;-56
2023/05/09 06:10:50;;;;;;;8.52;5.85;;;;;;;;;;4999197;28;20060;-56
2023/05/09 06:13:16;;;;;;;8.45;4.95;;;;;;;;;;5015330;28;20034;-56
2023/05/09 06:15:46;;;;;;;7.20;4.50;;;;;;;;;;4999186;28;20029;-56
2023/05/09 06:18:11;;;;;;;7.90;5.47;;;;;;;;;;5016484;28;20579;-56
2023/05/09 06:20:36;;;;;;;9.27;4.93;;;;;;;;;;4998910;28;20026;-56
2023/05/09 06:23:02;;;;;;;7.50;5.18;;;;;;;;;;5016995;28;20036;-56
2023/05/09 06:25:28;;;;;;;4.10;3.72;;;;;;;;;;4998839;28;20050;-56
2023/05/09 06:27:53;;;;;;;3.90;3.53;;;;;;;;;;4998786;28;20061;-56
2023/05/09 06:30:19;;;;;;;6.03;4.45;;;;;;;;;;5016330;28;20376;-57
2023/05/09 06:32:44;;;;;;;5.25;4.10;;;;;;;;;;5016191;28;20032;-56
2023/05/09 06:35:09;;;;;;;6.95;3.75;;;;;;;;;;5016493;28;20018;-56
2023/05/09 06:37:35;;;;;;;5.22;3.75;;;;;;;;;;5016080;28;20030;-56
2023/05/09 06:40:00;;;;;;;4.43;4.07;;;;;;;;;;5016497;28;20432;-57
2023/05/09 06:42:25;;;;;;;4.90;4.47;;;;;;;;;;5016056;28;20447;-57
2023/05/09 06:44:51;;;;;;;4.43;4.03;;;;;;;;;;5016280;28;20033;-56
2023/05/09 06:47:16;;;;;;;6.03;4.03;;;;;;;;;;5015946;28;20073;-56
2023/05/09 06:49:41;;;;;;;9.65;5.10;;;;;;;;;;5016414;28;20045;-56
2023/05/09 06:52:07;;;;;;;5.22;4.00;;;;;;;;;;5016130;28;20034;-56
2023/05/09 06:54:32;;;;;;;4.18;3.88;;;;;;;;;;5016136;28;20468;-56
2023/05/09 06:56:58;;;;;;;5.80;4.30;;;;;;;;;;5015751;28;20034;-56
2023/05/09 06:59:23;;;;;;;4.50;4.05;;;;;;;;;;5016036;28;20384;-56
2023/05/09 07:01:48;;;;;;;5.00;4.53;;;;;;;;;;5016768;28;20025;-57
2023/05/09 07:04:14;;;;;;;4.95;3.97;;;;;;;;;;5015644;28;20022;-57
2023/05/09 07:06:39;;;;;;;5.63;3.83;;;;;;;;;;5015876;28;20049;-56
2023/05/09 07:09:04;;;;;;;7.32;5.45;;;;;;;;;;5015076;28;20492;-57
2023/05/09 07:11:36;;;;;;;11.05;4.60;;;;;;;;;;5015529;28;20531;-57
2023/05/09 07:14:02;;;;;;;4.78;3.88;;;;;;;;;;5015752;28;20388;-56
2023/05/09 07:16:28;;;;;;;6.10;3.70;;;;;;;;;;5015375;28;20033;-57
2023/05/09 07:18:53;;;;;;;6.65;4.10;;;;;;;;;;5015376;28;20118;-56
2023/05/09 07:21:19;;;;;;;8.07;4.00;;;;;;;;;;5015335;28;20033;-56
2023/05/09 07:23:44;;;;;;;5.57;4.47;;;;;;;;;;5015590;28;20109;-56
2023/05/09 07:26:09;;;;;;;6.50;3.88;;;;;;;;;;5015768;28;20044;-56
2023/05/09 07:28:35;;;;;;;4.80;3.92;;;;;;;;;;5015228;28;20030;-57
2023/05/09 07:31:00;;;;;;;5.03;3.53;;;;;;;;;;4981354;28;20428;-57
2023/05/09 07:33:25;;;;;;;6.47;3.22;;;;;;;;;;4997549;28;20034;-57
2023/05/09 07:35:51;;;;;;;11.38;5.10;;;;;;;;;;5015297;28;20065;-56
2023/05/09 07:38:17;;;;;;;7.45;3.80;;;;;;;;;;5015032;28;20079;-56
2023/05/09 07:40:42;;;;;;;7.70;4.05;;;;;;;;;;5014800;28;20046;-56
2023/05/09 07:43:07;;;;;;;5.70;3.17;;;;;;;;;;5015278;28;20034;-57
2023/05/09 07:45:33;;;;;;;5.43;3.53;;;;;;;;;;5013746;28;20038;-56
2023/05/09 07:47:58;;;;;;;9.80;3.90;;;;;;;;;;5015411;28;20045;-56
2023/05/09 07:50:24;;;;;;;12.23;3.90;;;;;;;;;;5015081;28;20041;-56
2023/05/09 07:52:50;;;;;;;6.95;3.40;;;;;;;;;;5014815;28;20096;-56
2023/05/09 07:55:16;;;;;;;8.15;4.10;;;;;;;;;;5014942;28;20033;-56
2023/05/09 07:57:41;;;;;;;8.73;3.95;;;;;;;;;;5015244;28;20032;-56
2023/05/09 08:00:07;;;;;;;11.13;3.97;;;;;;;;;;5014662;28;20480;-56
2023/05/09 08:02:38;;;;;;;7.65;3.95;;;;;;;;;;5014876;28;20068;-57
2023/05/09 08:05:04;;;;;;;7.72;3.50;;;;;;;;;;5014847;28;20065;-56
2023/05/09 08:07:30;;;;;;;6.65;3.80;;;;;;;;;;5014555;28;20072;-56
2023/05/09 08:09:55;;;;;;;5.78;3.85;;;;;;;;;;5014476;28;20038;-57
2023/05/09 08:12:20;;;;;;;11.43;4.07;;;;;;;;;;4996821;28;20200;-56
2023/05/09 08:14:46;;;;;;;9.07;4.30;;;;;;;;;;5014674;28;20040;-56
2023/05/09 08:17:11;;;;;;;5.68;3.55;;;;;;;;;;5014551;28;20100;-57
2023/05/09 08:19:36;;;;;;;4.68;3.58;;;;;;;;;;5013521;28;20030;-56
2023/05/09 08:22:02;;;;;;;4.93;3.88;;;;;;;;;;5014548;28;20061;-57
2023/05/09 08:24:27;;;;;;;7.53;3.92;;;;;;;;;;5014245;28;20397;-56
2023/05/09 08:26:52;;;;;;;6.30;3.95;;;;;;;;;;5014521;28;20069;-56
2023/05/09 08:29:17;;;;;;;5.95;3.72;;;;;;;;;;5014220;28;20033;-56
2023/05/09 08:31:43;;;;;;;6.07;4.03;;;;;;;;;;5014440;28;20022;-56
2023/05/09 08:34:08;;;;;;;4.28;3.88;;;;;;;;;;5014397;28;20452;-56
2023/05/09 08:36:33;;;;;;;4.25;3.85;;;;;;;;;;5014248;28;20056;-56
2023/05/09 08:38:59;;;;;;;3.88;3.53;;;;;;;;;;5013931;28;20054;-57
2023/05/09 08:41:26;;;;;;;3.50;3.30;;;;;;;;;;5014021;28;20045;-56
2023/05/09 08:43:52;;;;;;;5.63;4.10;;;;;;;;;;5013997;28;20052;-56
2023/05/09 08:46:21;;;;;;;5.38;3.83;;;;;;;;;;5013965;28;20523;-56
2023/05/09 08:48:46;;;;;;;3.97;3.58;;;;;;;;;;5014253;28;20026;-56
2023/05/09 08:51:14;;;;;;;3.47;3.17;;;;;;;;;;5014472;28;20034;-56
2023/05/09 08:53:42;;;;;;;3.80;3.50;;;;;;;;;;5014181;28;20076;-57
2023/05/09 08:56:07;;;;;;;6.95;4.30;;;;;;;;;;5014093;28;20040;-57
2023/05/09 08:58:33;;;;;;;4.53;4.13;;;;;;;;;;5014130;28;20029;-57
2023/05/09 09:01:00;;;;;;;3.58;3.25;;;;;;;;;;5013856;28;20026;-56
2023/05/09 09:03:25;;;;;;;4.40;4.03;;;;;;;;;;5014066;28;20022;-57
2023/05/09 09:05:52;;;;;;;4.45;3.85;;;;;;;;;;5012516;28;20037;-56
2023/05/09 09:08:17;;;;;;;3.50;3.20;;;;;;;;;;4996176;28;20026;-56
2023/05/09 09:10:46;;;;;;;5.28;3.90;;;;;;;;;;4996090;28;20037;-56
2023/05/09 09:13:11;;;;;;;6.38;4.28;;;;;;;;;;5014010;28;20046;-56
2023/05/09 09:15:37;;;;;;;5.38;4.00;;;;;;;;;;5013614;28;20149;-56
2023/05/09 09:18:05;;;;;;;6.78;4.40;;;;;;;;;;5012746;28;20105;-56
2023/05/09 09:20:30;;;;;;;4.18;3.40;;;;;;;;;;5013673;28;20033;-57
2023/05/09 09:22:59;;;;;;;3.47;3.17;;;;;;;;;;5013597;28;20030;-57
2023/05/09 09:25:25;;;;;;;3.80;3.50;;;;;;;;;;5013887;28;20044;-56
2023/05/09 09:27:50;;;;;;;3.55;3.33;;;;;;;;;;5013606;28;20464;-56
2023/05/09 09:30:16;;;;;;;3.50;3.22;;;;;;;;;;5013585;28;20037;-56
2023/05/09 09:32:41;;;;;;;5.18;4.10;;;;;;;;;;5017351;28;20057;-56
2023/05/09 09:35:07;;;;;;;3.33;3.03;;;;;;;;;;5017629;28;20024;-56
2023/05/09 09:37:33;;;;;;;3.78;3.38;;;;;;;;;;5017227;28;20080;-56
2023/05/09 09:39:59;;;;;;;2.67;2.38;;;;;;;;;;5017075;28;20133;-56
2023/05/09 09:42:24;;;;;;;4.95;3.78;;;;;;;;;;5017234;28;20058;-56
2023/05/09 09:44:54;;;;;;;4.30;3.97;;;;;;;;;;5017444;28;20034;-56
2023/05/09 09:47:29;;;;;;;4.60;4.18;;;;;;;;;;5017125;28;20041;-56
2023/05/09 09:49:54;;;;;;;3.63;3.40;;;;;;;;;;5017082;28;20033;-56
2023/05/09 09:52:25;;;;;;;4.50;4.10;;;;;;;;;;5017035;28;20487;-57
2023/05/09 09:54:53;;;;;;;4.45;3.78;;;;;;;;;;5016990;28;20117;-56
2023/05/09 09:57:38;;;;;;;5.18;3.90;;;;;;;;;;4999670;28;20045;-56
2023/05/09 10:00:05;;;;;;;4.15;3.22;;;;;;;;;;5017138;28;20088;-56
2023/05/09 10:02:31;;;;;;;4.97;3.35;;;;;;;;;;5016839;28;20054;-57
2023/05/09 10:05:04;;;;;;;5.40;3.60;;;;;;;;;;5016776;28;20523;-56
2023/05/09 10:07:32;;;;;;;3.72;3.38;;;;;;;;;;5017019;28;20096;-56
2023/05/09 10:09:57;;;;;;;5.70;3.38;;;;;;;;;;5016741;28;20112;-56
2023/05/09 10:12:22;;;;;;;3.10;2.70;;;;;;;;;;5016665;28;20548;-56
2023/05/09 10:14:48;;;;;;;6.35;4.38;;;;;;;;;;5017184;28;20040;-57
2023/05/09 10:17:13;;;;;;;4.63;3.05;;;;;;;;;;5016480;28;20022;-56
2023/05/09 10:19:42;;;;;;;3.65;3.13;;;;;;;;;;5016512;28;20092;-56
2023/05/09 10:22:09;;;;;;;5.10;2.90;;;;;;;;;;5016743;28;20044;-57
2023/05/09 10:24:34;;;;;;;4.57;2.55;;;;;;;;;;5016986;28;20026;-56
2023/05/09 10:27:03;;;;;;;3.53;2.67;;;;;;;;;;5015538;28;20037;-57
2023/05/09 10:29:31;;;;;;;4.43;2.92;;;;;;;;;;5016657;28;20038;-56
2023/05/09 10:31:58;;;;;;;3.90;3.55;;;;;;;;;;5016586;28;20098;-57
2023/05/09 10:34:24;;;;;;;2.60;2.40;;;;;;;;;;5016269;28;20037;-56
2023/05/09 10:36:50;;;;;;;3.15;2.40;;;;;;;;;;5016394;28;20026;-56
2023/05/09 10:39:15;;;;;;;2.95;2.70;;;;;;;;;;5015955;28;20107;-56
2023/05/09 10:41:41;;;;;;;2.72;2.33;;;;;;;;;;5016148;28;20022;-56
2023/05/09 10:44:07;;;;;;;4.55;2.70;;;;;;;;;;5015463;28;20041;-56
2023/05/09 10:46:32;;;;;;;2.88;2.08;;;;;;;;;;5016068;28;20030;-56
2023/05/09 10:48:58;;;;;;;2.80;2.53;;;;;;;;;;5015991;28;20092;-56
2023/05/09 10:51:23;;;;;;;2.13;1.85;;;;;;;;;;5016221;28;20029;-56
2023/05/09 10:53:49;;;;;;;3.22;2.00;;;;;;;;;;5015906;28;20054;-56
2023/05/09 10:56:41;;;;;;;3.97;2.15;;;;;;;;;;5015766;28;20030;-56
2023/05/09 10:59:26;;;;;;;4.95;1.90;;;;;;;;;;5013416;28;20088;-57
2023/05/09 11:01:55;;;;;;;2.33;1.48;;;;;;;;;;5015637;28;20040;-57
2023/05/09 11:04:21;;;;;;;2.75;2.47;;;;;;;;;;5015981;28;20022;-57
2023/05/09 11:06:49;;;;;;;2.50;2.30;;;;;;;;;;5015659;28;20052;-56
2023/05/09 11:09:21;;;;;;;3.67;2.55;;;;;;;;;;4998644;28;20080;-57
2023/05/09 11:11:53;;;;;;;4.68;2.22;;;;;;;;;;5016092;28;20079;-56
2023/05/09 11:14:48;;;;;;;4.82;2.17;;;;;;;;;;5015790;28;20030;-57
2023/05/09 11:17:19;;;;;;;2.00;1.80;;;;;;;;;;5002636;28;20038;-56
2023/05/09 11:19:44;;;;;;;2.25;1.95;;;;;;;;;;5015695;28;20113;-57
2023/05/09 11:22:31;;;;;;;2.15;1.65;;;;;;;;;;5015393;28;20061;-56
2023/05/09 11:25:09;;;;;;;1.58;1.48;;;;;;;;;;5015215;28;20030;-56
2023/05/09 11:27:37;;;;;;;3.03;1.65;;;;;;;;;;5015809;28;20034;-57
2023/05/09 11:30:04;;;;;;;3.35;1.80;;;;;;;;;;5015179;28;20423;-56
2023/05/09 11:32:30;;;;;;;1.80;1.40;;;;;;;;;;5015448;28;20096;-57
2023/05/09 11:35:06;;;;;;;1.80;1.70;;;;;;;;;;5015389;28;20116;-57
2023/05/09 11:37:31;;;;;;;3.10;2.25;;;;;;;;;;5015272;28;20047;-57
2023/05/09 11:40:03;;;;;;;2.50;2.30;;;;;;;;;;5014888;28;20046;-57
2023/05/09 11:42:29;;;;;;;2.67;2.13;;;;;;;;;;5015228;28;20033;-56
2023/05/09 11:44:55;;;;;;;2.55;2.35;;;;;;;;;;4997982;28;20466;-56
2023/05/09 11:47:20;;;;;;;2.33;2.15;;;;;;;;;;5015194;28;20168;-57
2023/05/09 11:49:48;;;;;;;2.83;1.92;;;;;;;;;;5015098;28;20042;-56
2023/05/09 11:52:20;;;;;;;2.50;2.30;;;;;;;;;;5014807;28;20030;-57
2023/05/09 11:54:46;;;;;;;2.95;1.95;;;;;;;;;;5014679;28;20041;-56
2023/05/09 11:57:16;;;;;;;2.75;2.25;;;;;;;;;;5014927;28;20034;-56
2023/05/09 11:59:41;;;;;;;3.93;1.93;;;;;;;;;;5015006;28;20037;-56
2023/05/09 12:02:07;;;;;;;1.63;1.52;;;;;;;;;;5014659;28;20045;-56
2023/05/09 12:04:32;;;;;;;5.00;2.50;;;;;;;;;;5014876;28;20105;-56
2023/05/09 12:06:58;;;;;;;3.05;2.30;;;;;;;;;;5014572;28;20041;-57
2023/05/09 12:09:26;;;;;;;2.47;1.92;;;;;;;;;;5014480;28;20531;-56
2023/05/09 12:11:51;;;;;;;2.45;1.77;;;;;;;;;;5015049;28;20519;-56
2023/05/09 12:14:26;;;;;;;4.38;1.90;;;;;;;;;;5014698;28;20033;-57
2023/05/09 12:16:51;;;;;;;3.42;1.80;;;;;;;;;;5014336;28;20037;-56
2023/05/09 12:19:21;;;;;;;3.17;2.20;;;;;;;;;;5014635;28;20033;-56
2023/05/09 12:21:46;;;;;;;2.33;1.90;;;;;;;;;;4996697;28;20037;-56
2023/05/09 12:24:11;;;;;;;2.97;1.92;;;;;;;;;;5014306;28;20374;-56
2023/05/09 12:26:37;;;;;;;3.78;2.53;;;;;;;;;;5014235;28;20029;-57
2023/05/09 12:29:03;;;;;;;3.78;2.10;;;;;;;;;;5014225;28;20041;-56
2023/05/09 12:31:28;;;;;;;1.95;1.63;;;;;;;;;;5014187;28;20025;-56
2023/05/09 12:33:54;;;;;;;2.40;2.20;;;;;;;;;;5014410;28;20033;-56
2023/05/09 12:36:19;;;;;;;5.60;2.10;;;;;;;;;;5014082;28;20467;-57
2023/05/09 12:38:53;;;;;;;2.10;1.95;;;;;;;;;;5014102;28;20065;-56
2023/05/09 12:41:19;;;;;;;2.00;1.80;;;;;;;;;;5014359;28;20030;-56
2023/05/09 12:43:47;;;;;;;2.60;2.40;;;;;;;;;;5014292;28;20084;-56
2023/05/09 12:46:16;;;;;;;3.00;2.08;;;;;;;;;;5014030;28;20034;-56
2023/05/09 12:48:42;;;;;;;2.28;2.15;;;;;;;;;;5014083;28;20033;-56
2023/05/09 12:51:08;;;;;;;2.67;2.20;;;;;;;;;;5013961;28;20022;-56
2023/05/09 12:53:40;;;;;;;2.10;2.00;;;;;;;;;;5013911;28;20100;-56
2023/05/09 12:56:11;;;;;;;3.25;1.92;;;;;;;;;;5014379;28;20065;-56
2023/05/09 12:58:37;;;;;;;8.38;2.45;;;;;;;;;;5014151;28;20041;-56
2023/05/09 13:01:03;;;;;;;4.07;2.38;;;;;;;;;;5013818;28;20076;-56
2023/05/09 13:03:47;;;;;;;3.55;2.20;;;;;;;;;;5013718;28;20360;-56
2023/05/09 13:06:13;;;;;;;2.80;2.20;;;;;;;;;;5015031;28;20060;-57
2023/05/09 13:08:39;;;;;;;5.32;2.05;;;;;;;;;;5017837;28;20492;-56
2023/05/09 13:11:04;;;;;;;2.00;1.75;;;;;;;;;;5001060;28;20072;-56
2023/05/09 13:13:30;;;;;;;3.67;1.63;;;;;;;;;;5018061;28;20064;-56
2023/05/09 13:15:56;;;;;;;3.03;1.92;;;;;;;;;;5017538;28;20512;-56
2023/05/09 13:18:23;;;;;;;10.70;2.75;;;;;;;;;;5017150;28;20030;-56
2023/05/09 13:20:48;;;;;;;3.55;2.20;;;;;;;;;;5016585;28;20026;-57
2023/05/09 13:23:14;;;;;;;5.88;2.22;;;;;;;;;;5016504;28;20507;-57
2023/05/09 13:25:39;;;;;;;3.38;2.35;;;;;;;;;;5016535;28;20041;-56
2023/05/09 13:28:05;;;;;;;2.78;2.28;;;;;;;;;;5016473;28;20022;-56
2023/05/09 13:30:30;;;;;;;3.40;2.40;;;;;;;;;;5016379;28;20036;-56
2023/05/09 13:32:55;;;;;;;5.03;2.00;;;;;;;;;;5015107;28;20491;-56
2023/05/09 13:35:21;;;;;;;3.55;2.00;;;;;;;;;;5016321;28;20092;-56
2023/05/09 13:37:46;;;;;;;2.05;1.90;;;;;;;;;;5016238;28;20380;-56
2023/05/09 13:40:11;;;;;;;2.33;2.13;;;;;;;;;;5016179;28;20506;-56
2023/05/09 13:42:37;;;;;;;2.45;1.65;;;;;;;;;;5016251;28;20034;-56
2023/05/09 13:45:03;;;;;;;1.70;1.60;;;;;;;;;;5016216;28;20464;-56
2023/05/09 13:47:28;;;;;;;3.17;2.00;;;;;;;;;;5016137;28;20026;-56
2023/05/09 13:49:53;;;;;;;2.15;1.77;;;;;;;;;;5016395;28;20396;-57
2023/05/09 13:52:18;;;;;;;3.50;1.52;;;;;;;;;;5016125;28;20120;-56
2023/05/09 13:54:44;;;;;;;3.72;2.10;;;;;;;;;;5016072;28;20045;-56
2023/05/09 13:57:09;;;;;;;2.38;1.83;;;;;;;;;;5016073;28;20022;-56
2023/05/09 13:59:35;;;;;;;1.90;1.80;;;;;;;;;;5016168;28;20022;-56
2023/05/09 14:02:00;;;;;;;4.63;2.13;;;;;;;;;;5015839;28;20433;-57
2023/05/09 14:04:26;;;;;;;3.22;1.80;;;;;;;;;;5008741;28;20045;-56
2023/05/09 14:06:52;;;;;;;2.53;1.70;;;;;;;;;;4999320;28;20081;-56
2023/05/09 14:09:18;;;;;;;3.40;1.70;;;;;;;;;;5017320;28;20088;-56
2023/05/09 14:11:43;;;;;;;2.00;1.90;;;;;;;;;;5016808;28;20096;-57
2023/05/09 14:14:10;;;;;;;2.05;1.95;;;;;;;;;;5016950;28;20044;-56
2023/05/09 14:16:35;;;;;;;4.53;2.10;;;;;;;;;;5016755;28;20022;-57
2023/05/09 14:19:01;;;;;;;2.42;2.22;;;;;;;;;;5015334;28;20076;-57
2023/05/09 14:21:26;;;;;;;5.60;1.73;;;;;;;;;;5016525;28;20065;-57
2023/05/09 14:23:51;;;;;;;2.53;1.90;;;;;;;;;;5016524;28;20034;-56
2023/05/09 14:26:19;;;;;;;2.17;1.92;;;;;;;;;;5016764;28;20033;-56
2023/05/09 14:28:44;;;;;;;2.38;1.70;;;;;;;;;;5015179;28;20037;-57
2023/05/09 14:31:10;;;;;;;2.47;1.88;;;;;;;;;;5015986;28;20034;-57
2023/05/09 14:33:36;;;;;;;2.95;1.60;;;;;;;;;;5015836;28;20026;-57
2023/05/09 14:36:02;;;;;;;2.67;1.65;;;;;;;;;;5015942;28;20108;-57
2023/05/09 14:38:28;;;;;;;2.40;1.90;;;;;;;;;;5016815;28;20018;-56